Flight Track Log - Related Links

Times and Time Zones

All times are in EDT time to prevent confusion due to time zone crossing. See the SKW5460 flight status page for this flight to view local times or setup timezone preferences in your user account.

Time Position Orientation Groundspeed Altitude Reporting Facility
EDT Latitude Longitude Course Direction KTS MPH feet Rate Location/Type
Tue 09:30:48 AM 40.4942 -122.2942 15° North 150 173 1,400  Level Oakland Center
Tue 09:31:48 AM 40.4731 -122.2508 123° Southeast 155 178 3,200 1,686 Climbing Oakland Center
Tue 09:32:49 AM 40.4506 -122.1958 118° Southeast 164 189 4,800 1,672 Climbing Oakland Center
Tue 09:33:00 AM 40.0940 -122.3847 190° South  Level FlightAware Approximate
Tue 09:33:50 AM 40.3983 -122.1936 178° South 185 213 6,600  Level Oakland Center
Tue 09:34:00 AM 40.0229 -122.3844 21° North  Level Estimated
Tue 09:34:51 AM 40.3494 -122.2092 194° South 183 211 8,400  Level Oakland Center
Tue 09:35:00 AM 40.0786 -122.3267 38° Northeast  Level FlightAware Approximate
Tue 09:35:51 AM 40.2961 -122.2264 194° South 189 217 10,000  Level Oakland Center
Tue 09:36:00 AM 40.0076 -122.3282 15° North  Level Estimated
Tue 09:36:52 AM 40.2392 -122.2442 193° South 199 229 11,700  Level Oakland Center
Tue 09:37:53 AM 40.1800 -122.2614 193° South 212 244 13,500 1,475 Climbing Oakland Center
Tue 09:38:54 AM 40.1222 -122.2781 192° South 214 246 14,700 1,328 Climbing Oakland Center
Tue 09:39:55 AM 40.0533 -122.3003 194° South 231 266 16,200 1,328 Climbing Oakland Center
Tue 09:40:56 AM 39.9908 -122.3181 192° South 231 266 17,400 1,140 Climbing Oakland Center
Tue 09:41:56 AM 39.9267 -122.3367 193° South 235 270 18,500 1,190 Climbing Oakland Center
Tue 09:42:57 AM 39.8622 -122.3561 193° South 238 274 19,800 1,131 Climbing Oakland Center
Tue 09:43:58 AM 39.7978 -122.3753 193° South 237 273 20,800 590 Climbing Oakland Center
Tue 09:44:59 AM 39.7278 -122.3967 193° South 257 296 21,000 98 Climbing Oakland Center
Tue 09:46:00 AM 39.6500 -122.4206 193° South 284 327 21,000  Level Oakland Center
Tue 09:47:01 AM 39.5733 -122.4433 193° South 284 327 21,000  Level Oakland Center
Tue 09:48:02 AM 39.4822 -122.4706 193° South 280 322 21,000  Level Oakland Center
Tue 09:49:03 AM 39.4133 -122.4897 192° South 278 320 21,000  Level Oakland Center
Tue 09:50:04 AM 39.3383 -122.5103 192° South 277 319 21,000  Level Oakland Center
Tue 09:51:05 AM 39.2569 -122.5328 192° South 277 319 21,000  Level Oakland Center
Tue 09:52:06 AM 39.1892 -122.5522 193° South 275 316 21,000  Level Oakland Center
Tue 09:53:07 AM 39.1142 -122.5733 192° South 276 318 21,000  Level Oakland Center
Tue 09:54:08 AM 39.0400 -122.5947 193° South 274 315 21,000  Level Oakland Center
Tue 09:55:09 AM 38.9661 -122.6167 193° South 273 314 21,000  Level Oakland Center
Tue 09:56:10 AM 38.8828 -122.6411 193° South 275 316 21,000  Level Oakland Center
Tue 09:57:11 AM 38.8086 -122.6611 192° South 274 315 21,000  Level Oakland Center
Tue 09:58:12 AM 38.7339 -122.6833 193° South 276 318 21,000  Level Oakland Center
Tue 09:59:13 AM 38.6592 -122.7053 193° South 277 319 21,000  Level Oakland Center
Tue 10:00:14 AM 38.5828 -122.7086 182° South 279 321 21,000  Level Oakland Center
Tue 10:01:15 AM 38.5067 -122.7000 175° South 275 316 21,000 -98 Level Oakland Center
Tue 10:02:16 AM 38.4300 -122.6967 178° South 277 319 20,800 -787 Descending Oakland Center
Tue 10:03:17 AM 38.3389 -122.6936 178° South 274 315 19,400 -1,426 Descending Oakland Center
Tue 10:04:18 AM 38.2639 -122.6881 177° South 271 312 17,900 -1,426 Descending Oakland Center
Tue 10:05:19 AM 38.1875 -122.6847 178° South 277 319 16,500 -1,377 Descending Oakland Center
Tue 10:06:20 AM 38.1128 -122.6814 178° South 271 312 15,100 -1,328 Descending Oakland Center
Tue 10:07:21 AM 38.0369 -122.6783 178° South 273 314 13,800 -1,377 Descending Oakland Center
Tue 10:08:22 AM 37.9633 -122.6756 178° South 269 310 12,300 -1,377 Descending Oakland Center
Tue 10:09:23 AM 37.8939 -122.6647 173° South 276 318 11,000 -729 Descending Oakland Center
Tue 10:10:09 AM 37.8500 -122.6167 139° Southeast 248 285 11,000  Level Northern Cal TRACON
Tue 10:11:09 AM 37.8000 -122.5500 133° Southeast 245 282 11,000  Level Northern Cal TRACON
Tue 10:12:09 AM 37.7333 -122.5000 149° Southeast 242 278 11,000  Level Northern Cal TRACON
Tue 10:13:09 AM 37.6833 -122.4500 142° Southeast 241 277 11,000  Level Northern Cal TRACON
Tue 10:14:03 AM 37.6500 -122.4000 130° Southeast 239 275 11,000 -368 Level Northern Cal TRACON
Tue 10:15:03 AM 37.5833 -122.3500 149° Southeast 244 281 10,300 -966 Descending Northern Cal TRACON
Tue 10:15:30 AM 37.5689 -122.3386 148° Southeast 241 277 9,600 -1,909 Descending Oakland Center
Tue 10:16:31 AM 37.5067 -122.3006 154° Southeast 247 284 7,500 -1,525 Descending Oakland Center
Tue 10:17:32 AM 37.4764 -122.2397 122° Southeast 219 252 6,500 -1,328 Descending Oakland Center
Tue 10:18:33 AM 37.4508 -122.1644 113° Southeast 202 232 4,800 -1,220 Descending Oakland Center
Tue 10:19:35 AM 37.4569 -122.1089 82° East 203 234 4,000 -615 Descending Oakland Center
Tue 10:19:51 AM 37.4667 -122.1000 36° Northeast 199 229 4,000  Level Northern Cal TRACON
Tue 10:20:51 AM 37.5167 -122.1167 345° North 192 221 4,000 113 Level Northern Cal TRACON
Tue 10:21:37 AM 37.5367 -122.1611 300° West 187 215 4,200 261 Climbing Oakland Center

Login

Don't have an account? Register now (free) for customized features, flight alerts, and more!